sensor_id;sensor_type;location;lat;lon;timestamp;P1;durP1;ratioP1;P2;durP2;ratioP2
44995;SDS011;30729;49.486;10.792;2023-02-08T00:00:09;23.63;;;10.60;;
44995;SDS011;30729;49.486;10.792;2023-02-08T00:03:43;21.08;;;10.25;;
44995;SDS011;30729;49.486;10.792;2023-02-08T00:07:07;23.65;;;11.00;;
44995;SDS011;30729;49.486;10.792;2023-02-08T00:10:31;29.55;;;13.77;;
44995;SDS011;30729;49.486;10.792;2023-02-08T00:13:55;26.65;;;12.25;;
44995;SDS011;30729;49.486;10.792;2023-02-08T00:17:19;30.50;;;13.63;;
44995;SDS011;30729;49.486;10.792;2023-02-08T00:20:43;28.42;;;12.63;;
44995;SDS011;30729;49.486;10.792;2023-02-08T00:24:07;24.90;;;11.95;;
44995;SDS011;30729;49.486;10.792;2023-02-08T00:27:31;30.45;;;14.35;;
44995;SDS011;30729;49.486;10.792;2023-02-08T00:30:55;26.67;;;11.55;;
44995;SDS011;30729;49.486;10.792;2023-02-08T00:34:19;26.45;;;12.20;;
44995;SDS011;30729;49.486;10.792;2023-02-08T00:37:43;23.98;;;11.10;;
44995;SDS011;30729;49.486;10.792;2023-02-08T00:41:07;23.00;;;10.65;;
44995;SDS011;30729;49.486;10.792;2023-02-08T00:44:31;24.55;;;11.00;;
44995;SDS011;30729;49.486;10.792;2023-02-08T00:47:56;23.08;;;10.75;;
44995;SDS011;30729;49.486;10.792;2023-02-08T00:51:20;26.90;;;10.55;;
44995;SDS011;30729;49.486;10.792;2023-02-08T00:54:44;20.17;;;9.50;;
44995;SDS011;30729;49.486;10.792;2023-02-08T00:58:14;20.88;;;9.57;;
44995;SDS011;30729;49.486;10.792;2023-02-08T01:01:38;25.52;;;11.57;;
44995;SDS011;30729;49.486;10.792;2023-02-08T01:05:03;22.10;;;10.65;;
44995;SDS011;30729;49.486;10.792;2023-02-08T01:08:28;23.98;;;11.13;;
44995;SDS011;30729;49.486;10.792;2023-02-08T01:11:52;26.00;;;11.25;;
44995;SDS011;30729;49.486;10.792;2023-02-08T01:15:16;22.73;;;9.82;;
44995;SDS011;30729;49.486;10.792;2023-02-08T01:18:42;25.00;;;10.75;;
44995;SDS011;30729;49.486;10.792;2023-02-08T01:22:06;23.27;;;10.68;;
44995;SDS011;30729;49.486;10.792;2023-02-08T01:25:30;27.77;;;11.30;;
44995;SDS011;30729;49.486;10.792;2023-02-08T01:28:55;31.10;;;13.02;;
44995;SDS011;30729;49.486;10.792;2023-02-08T01:32:18;31.83;;;13.38;;
44995;SDS011;30729;49.486;10.792;2023-02-08T01:35:42;26.55;;;11.20;;
44995;SDS011;30729;49.486;10.792;2023-02-08T01:39:06;28.00;;;11.80;;
44995;SDS011;30729;49.486;10.792;2023-02-08T01:42:31;28.27;;;11.80;;
44995;SDS011;30729;49.486;10.792;2023-02-08T01:45:56;27.08;;;10.43;;
44995;SDS011;30729;49.486;10.792;2023-02-08T01:49:27;27.40;;;11.80;;
44995;SDS011;30729;49.486;10.792;2023-02-08T01:52:54;27.60;;;12.13;;
44995;SDS011;30729;49.486;10.792;2023-02-08T01:56:22;25.23;;;11.93;;
44995;SDS011;30729;49.486;10.792;2023-02-08T01:59:50;25.60;;;11.45;;
44995;SDS011;30729;49.486;10.792;2023-02-08T02:03:14;22.92;;;11.38;;
44995;SDS011;30729;49.486;10.792;2023-02-08T02:06:40;23.48;;;11.80;;
44995;SDS011;30729;49.486;10.792;2023-02-08T02:10:09;20.95;;;8.70;;
44995;SDS011;30729;49.486;10.792;2023-02-08T02:13:34;22.55;;;10.07;;
44995;SDS011;30729;49.486;10.792;2023-02-08T02:17:01;20.77;;;10.13;;
44995;SDS011;30729;49.486;10.792;2023-02-08T02:20:35;23.77;;;10.48;;
44995;SDS011;30729;49.486;10.792;2023-02-08T02:39:21;27.75;;;11.55;;
44995;SDS011;30729;49.486;10.792;2023-02-08T02:43:10;23.67;;;9.95;;
44995;SDS011;30729;49.486;10.792;2023-02-08T02:46:49;26.48;;;9.80;;
44995;SDS011;30729;49.486;10.792;2023-02-08T02:54:18;21.50;;;10.50;;
44995;SDS011;30729;49.486;10.792;2023-02-08T02:57:46;25.80;;;11.18;;
44995;SDS011;30729;49.486;10.792;2023-02-08T03:01:13;22.02;;;11.02;;
44995;SDS011;30729;49.486;10.792;2023-02-08T03:15:57;22.13;;;9.27;;
44995;SDS011;30729;49.486;10.792;2023-02-08T03:26:59;20.65;;;8.48;;
44995;SDS011;30729;49.486;10.792;2023-02-08T03:30:29;19.58;;;8.70;;
44995;SDS011;30729;49.486;10.792;2023-02-08T03:34:20;20.25;;;9.15;;
44995;SDS011;30729;49.486;10.792;2023-02-08T03:37:54;21.38;;;9.35;;
44995;SDS011;30729;49.486;10.792;2023-02-08T03:41:23;22.65;;;8.80;;
44995;SDS011;30729;49.486;10.792;2023-02-08T03:44:51;17.70;;;8.73;;
44995;SDS011;30729;49.486;10.792;2023-02-08T03:48:26;17.60;;;7.32;;
44995;SDS011;30729;49.486;10.792;2023-02-08T03:51:57;20.52;;;9.30;;
44995;SDS011;30729;49.486;10.792;2023-02-08T03:55:26;27.08;;;10.45;;
44995;SDS011;30729;49.486;10.792;2023-02-08T03:58:59;19.73;;;8.52;;
44995;SDS011;30729;49.486;10.792;2023-02-08T04:02:28;25.00;;;9.73;;
44995;SDS011;30729;49.486;10.792;2023-02-08T04:05:54;19.73;;;9.00;;
44995;SDS011;30729;49.486;10.792;2023-02-08T04:09:18;22.90;;;10.43;;
44995;SDS011;30729;49.486;10.792;2023-02-08T04:12:43;22.02;;;8.88;;
44995;SDS011;30729;49.486;10.792;2023-02-08T04:16:08;20.42;;;10.07;;
44995;SDS011;30729;49.486;10.792;2023-02-08T04:19:32;22.48;;;9.90;;
44995;SDS011;30729;49.486;10.792;2023-02-08T04:22:56;24.10;;;10.00;;
44995;SDS011;30729;49.486;10.792;2023-02-08T04:26:20;26.77;;;10.38;;
44995;SDS011;30729;49.486;10.792;2023-02-08T04:29:44;26.02;;;12.05;;
44995;SDS011;30729;49.486;10.792;2023-02-08T04:33:08;26.42;;;11.68;;
44995;SDS011;30729;49.486;10.792;2023-02-08T04:36:32;28.80;;;12.38;;
44995;SDS011;30729;49.486;10.792;2023-02-08T04:39:56;23.27;;;12.55;;
44995;SDS011;30729;49.486;10.792;2023-02-08T04:43:20;24.38;;;11.38;;
44995;SDS011;30729;49.486;10.792;2023-02-08T04:46:44;25.55;;;11.27;;
44995;SDS011;30729;49.486;10.792;2023-02-08T04:50:07;22.33;;;11.15;;
44995;SDS011;30729;49.486;10.792;2023-02-08T04:53:31;28.48;;;12.18;;
44995;SDS011;30729;49.486;10.792;2023-02-08T16:55:25;19.15;;;9.00;;
44995;SDS011;30729;49.486;10.792;2023-02-08T16:57:55;26.15;;;11.10;;
44995;SDS011;30729;49.486;10.792;2023-02-08T17:00:25;31.75;;;13.52;;
44995;SDS011;30729;49.486;10.792;2023-02-08T17:02:52;30.58;;;11.93;;
44995;SDS011;30729;49.486;10.792;2023-02-08T17:05:19;27.58;;;13.18;;
44995;SDS011;30729;49.486;10.792;2023-02-08T17:07:46;31.88;;;13.45;;
44995;SDS011;30729;49.486;10.792;2023-02-08T17:10:30;29.05;;;12.98;;
44995;SDS011;30729;49.486;10.792;2023-02-08T17:12:57;25.55;;;10.73;;
44995;SDS011;30729;49.486;10.792;2023-02-08T17:15:24;24.58;;;11.23;;
44995;SDS011;30729;49.486;10.792;2023-02-08T17:17:50;30.23;;;13.10;;
44995;SDS011;30729;49.486;10.792;2023-02-08T17:22:49;25.35;;;10.50;;
44995;SDS011;30729;49.486;10.792;2023-02-08T17:25:16;21.60;;;9.88;;
44995;SDS011;30729;49.486;10.792;2023-02-08T17:27:59;26.77;;;12.25;;
44995;SDS011;30729;49.486;10.792;2023-02-08T17:30:32;28.83;;;12.77;;
44995;SDS011;30729;49.486;10.792;2023-02-08T17:33:02;23.83;;;10.35;;
44995;SDS011;30729;49.486;10.792;2023-02-08T17:36:34;29.75;;;11.20;;
44995;SDS011;30729;49.486;10.792;2023-02-08T17:39:58;25.60;;;11.45;;
44995;SDS011;30729;49.486;10.792;2023-02-08T17:43:24;21.65;;;9.55;;
44995;SDS011;30729;49.486;10.792;2023-02-08T17:46:48;23.73;;;11.07;;
44995;SDS011;30729;49.486;10.792;2023-02-08T17:50:13;22.58;;;10.32;;
44995;SDS011;30729;49.486;10.792;2023-02-08T17:53:40;25.10;;;11.02;;
44995;SDS011;30729;49.486;10.792;2023-02-08T17:57:04;30.35;;;10.60;;
44995;SDS011;30729;49.486;10.792;2023-02-08T18:00:28;23.77;;;10.70;;
44995;SDS011;30729;49.486;10.792;2023-02-08T18:03:52;41.72;;;16.15;;
44995;SDS011;30729;49.486;10.792;2023-02-08T18:07:16;37.17;;;16.65;;
44995;SDS011;30729;49.486;10.792;2023-02-08T18:10:40;37.55;;;17.20;;
44995;SDS011;30729;49.486;10.792;2023-02-08T18:14:05;28.95;;;16.77;;
44995;SDS011;30729;49.486;10.792;2023-02-08T18:17:30;27.75;;;14.38;;
44995;SDS011;30729;49.486;10.792;2023-02-08T18:20:54;30.63;;;12.80;;
44995;SDS011;30729;49.486;10.792;2023-02-08T18:24:18;29.80;;;13.57;;
44995;SDS011;30729;49.486;10.792;2023-02-08T18:27:43;26.58;;;12.88;;
44995;SDS011;30729;49.486;10.792;2023-02-08T18:31:08;27.30;;;11.80;;
44995;SDS011;30729;49.486;10.792;2023-02-08T18:34:33;24.75;;;12.45;;
44995;SDS011;30729;49.486;10.792;2023-02-08T18:37:57;28.52;;;12.40;;
44995;SDS011;30729;49.486;10.792;2023-02-08T18:41:23;26.70;;;12.00;;
44995;SDS011;30729;49.486;10.792;2023-02-08T18:44:47;25.92;;;11.27;;
44995;SDS011;30729;49.486;10.792;2023-02-08T18:48:21;31.33;;;11.55;;
44995;SDS011;30729;49.486;10.792;2023-02-08T18:51:45;25.17;;;10.45;;
44995;SDS011;30729;49.486;10.792;2023-02-08T18:55:09;27.83;;;11.20;;
44995;SDS011;30729;49.486;10.792;2023-02-08T18:58:35;29.40;;;12.25;;
44995;SDS011;30729;49.486;10.792;2023-02-08T19:01:59;32.05;;;13.38;;
44995;SDS011;30729;49.486;10.792;2023-02-08T19:05:23;32.42;;;13.85;;
44995;SDS011;30729;49.486;10.792;2023-02-08T19:08:49;29.77;;;11.90;;
44995;SDS011;30729;49.486;10.792;2023-02-08T19:12:13;28.65;;;11.27;;
44995;SDS011;30729;49.486;10.792;2023-02-08T19:15:38;28.25;;;12.77;;
44995;SDS011;30729;49.486;10.792;2023-02-08T19:19:02;29.65;;;13.07;;
44995;SDS011;30729;49.486;10.792;2023-02-08T19:22:27;29.40;;;12.15;;
44995;SDS011;30729;49.486;10.792;2023-02-08T19:25:51;33.13;;;13.00;;
44995;SDS011;30729;49.486;10.792;2023-02-08T19:29:16;25.20;;;11.25;;
44995;SDS011;30729;49.486;10.792;2023-02-08T19:32:41;29.05;;;12.48;;
44995;SDS011;30729;49.486;10.792;2023-02-08T19:36:07;30.35;;;12.55;;
44995;SDS011;30729;49.486;10.792;2023-02-08T19:39:31;31.17;;;13.98;;
44995;SDS011;30729;49.486;10.792;2023-02-08T19:42:55;34.63;;;12.48;;
44995;SDS011;30729;49.486;10.792;2023-02-08T19:46:20;29.95;;;12.13;;
44995;SDS011;30729;49.486;10.792;2023-02-08T19:49:49;25.45;;;11.80;;
44995;SDS011;30729;49.486;10.792;2023-02-08T19:53:20;31.27;;;12.95;;
44995;SDS011;30729;49.486;10.792;2023-02-08T19:56:44;29.77;;;11.25;;
44995;SDS011;30729;49.486;10.792;2023-02-08T20:00:09;29.52;;;13.90;;
44995;SDS011;30729;49.486;10.792;2023-02-08T20:03:34;29.85;;;13.43;;
44995;SDS011;30729;49.486;10.792;2023-02-08T20:06:58;27.08;;;12.23;;
44995;SDS011;30729;49.486;10.792;2023-02-08T20:10:24;25.87;;;12.23;;
44995;SDS011;30729;49.486;10.792;2023-02-08T20:13:49;30.25;;;12.50;;
44995;SDS011;30729;49.486;10.792;2023-02-08T20:17:14;30.20;;;11.55;;
44995;SDS011;30729;49.486;10.792;2023-02-08T20:20:39;28.38;;;10.55;;
44995;SDS011;30729;49.486;10.792;2023-02-08T20:24:07;28.17;;;12.57;;
44995;SDS011;30729;49.486;10.792;2023-02-08T20:27:31;30.77;;;12.00;;
44995;SDS011;30729;49.486;10.792;2023-02-08T20:30:55;27.55;;;12.40;;
44995;SDS011;30729;49.486;10.792;2023-02-08T20:34:21;33.08;;;12.98;;
44995;SDS011;30729;49.486;10.792;2023-02-08T20:37:45;28.73;;;12.63;;
44995;SDS011;30729;49.486;10.792;2023-02-08T20:41:11;30.58;;;13.13;;
44995;SDS011;30729;49.486;10.792;2023-02-08T20:44:35;34.63;;;13.88;;
44995;SDS011;30729;49.486;10.792;2023-02-08T20:47:58;41.50;;;16.23;;
44995;SDS011;30729;49.486;10.792;2023-02-08T20:51:24;38.63;;;13.75;;
44995;SDS011;30729;49.486;10.792;2023-02-08T20:54:48;37.92;;;15.73;;
44995;SDS011;30729;49.486;10.792;2023-02-08T20:58:12;32.65;;;13.52;;
44995;SDS011;30729;49.486;10.792;2023-02-08T21:01:37;33.63;;;15.23;;
44995;SDS011;30729;49.486;10.792;2023-02-08T21:05:01;32.83;;;15.25;;
44995;SDS011;30729;49.486;10.792;2023-02-08T21:08:25;32.25;;;16.25;;
44995;SDS011;30729;49.486;10.792;2023-02-08T21:11:49;35.53;;;15.77;;
44995;SDS011;30729;49.486;10.792;2023-02-08T21:15:13;34.60;;;14.70;;
44995;SDS011;30729;49.486;10.792;2023-02-08T21:18:38;34.65;;;14.70;;
44995;SDS011;30729;49.486;10.792;2023-02-08T21:22:03;37.42;;;15.52;;
44995;SDS011;30729;49.486;10.792;2023-02-08T21:25:27;35.30;;;16.90;;
44995;SDS011;30729;49.486;10.792;2023-02-08T21:28:52;35.53;;;14.43;;
44995;SDS011;30729;49.486;10.792;2023-02-08T21:32:16;34.25;;;14.07;;
44995;SDS011;30729;49.486;10.792;2023-02-08T21:35:40;33.28;;;14.50;;
44995;SDS011;30729;49.486;10.792;2023-02-08T21:39:04;40.58;;;15.82;;
44995;SDS011;30729;49.486;10.792;2023-02-08T21:42:28;36.17;;;15.38;;
44995;SDS011;30729;49.486;10.792;2023-02-08T21:45:52;43.92;;;18.35;;
44995;SDS011;30729;49.486;10.792;2023-02-08T21:49:15;41.45;;;18.77;;
44995;SDS011;30729;49.486;10.792;2023-02-08T21:52:58;45.63;;;19.23;;
44995;SDS011;30729;49.486;10.792;2023-02-08T21:56:41;38.78;;;15.98;;
44995;SDS011;30729;49.486;10.792;2023-02-08T22:00:05;32.95;;;15.88;;
44995;SDS011;30729;49.486;10.792;2023-02-08T22:03:29;34.42;;;15.85;;
44995;SDS011;30729;49.486;10.792;2023-02-08T22:06:53;41.50;;;15.00;;
44995;SDS011;30729;49.486;10.792;2023-02-08T22:10:20;34.25;;;14.80;;
44995;SDS011;30729;49.486;10.792;2023-02-08T22:13:44;34.63;;;14.90;;
44995;SDS011;30729;49.486;10.792;2023-02-08T22:17:08;37.83;;;14.05;;
44995;SDS011;30729;49.486;10.792;2023-02-08T22:20:32;32.10;;;14.38;;
44995;SDS011;30729;49.486;10.792;2023-02-08T22:23:56;35.20;;;13.98;;
44995;SDS011;30729;49.486;10.792;2023-02-08T22:27:20;33.38;;;13.10;;
44995;SDS011;30729;49.486;10.792;2023-02-08T22:30:45;32.53;;;12.95;;
44995;SDS011;30729;49.486;10.792;2023-02-08T22:34:09;27.75;;;13.02;;
44995;SDS011;30729;49.486;10.792;2023-02-08T22:37:34;29.40;;;13.63;;
44995;SDS011;30729;49.486;10.792;2023-02-08T22:40:58;34.08;;;13.73;;
44995;SDS011;30729;49.486;10.792;2023-02-08T22:44:22;29.92;;;12.25;;
44995;SDS011;30729;49.486;10.792;2023-02-08T22:47:46;31.70;;;13.35;;
44995;SDS011;30729;49.486;10.792;2023-02-08T22:51:14;30.65;;;12.77;;
44995;SDS011;30729;49.486;10.792;2023-02-08T22:54:39;25.98;;;12.13;;
44995;SDS011;30729;49.486;10.792;2023-02-08T22:58:03;31.65;;;13.30;;
44995;SDS011;30729;49.486;10.792;2023-02-08T23:01:27;31.40;;;11.70;;
44995;SDS011;30729;49.486;10.792;2023-02-08T23:04:51;31.50;;;11.43;;
44995;SDS011;30729;49.486;10.792;2023-02-08T23:08:17;29.08;;;10.77;;
44995;SDS011;30729;49.486;10.792;2023-02-08T23:11:41;29.43;;;10.23;;
44995;SDS011;30729;49.486;10.792;2023-02-08T23:15:05;23.17;;;11.27;;
44995;SDS011;30729;49.486;10.792;2023-02-08T23:18:29;25.05;;;11.35;;
44995;SDS011;30729;49.486;10.792;2023-02-08T23:21:56;24.63;;;10.55;;
44995;SDS011;30729;49.486;10.792;2023-02-08T23:25:20;25.85;;;11.50;;
44995;SDS011;30729;49.486;10.792;2023-02-08T23:28:47;26.25;;;11.70;;
44995;SDS011;30729;49.486;10.792;2023-02-08T23:32:11;20.25;;;7.50;;
44995;SDS011;30729;49.486;10.792;2023-02-08T23:35:38;27.58;;;11.07;;
44995;SDS011;30729;49.486;10.792;2023-02-08T23:39:02;28.15;;;12.45;;
44995;SDS011;30729;49.486;10.792;2023-02-08T23:42:26;28.65;;;12.13;;
44995;SDS011;30729;49.486;10.792;2023-02-08T23:45:50;29.17;;;12.82;;
44995;SDS011;30729;49.486;10.792;2023-02-08T23:49:14;32.97;;;11.45;;
44995;SDS011;30729;49.486;10.792;2023-02-08T23:52:38;28.85;;;12.55;;
44995;SDS011;30729;49.486;10.792;2023-02-08T23:59:26;30.13;;;11.70;;
